Time;durP1;ratioP1;P1;durP2;ratioP2;P2;SDS_P1;SDS_P2;PMS_P1;PMS_P2;Temp;Humidity;BMP_temperature;BMP_pressure;BME280_temperature;BME280_humidity;BME280_pressure;Samples;Min_cycle;Max_cycle;Signal;HPM_P1;HPM_P2
2023/08/22 00:01:55;;;;;;;4.00;2.55;;;;;;;18.34;100.00;101768.22;5039807;28;20048;-67
2023/08/22 00:04:21;;;;;;;9.07;3.55;;;;;;;18.34;100.00;101769.03;5042948;28;20041;-66
2023/08/22 00:06:46;;;;;;;8.18;3.17;;;;;;;18.33;100.00;101777.94;5046317;28;20059;-67
2023/08/22 00:09:12;;;;;;;6.85;3.17;;;;;;;18.34;100.00;101778.75;5044095;28;20070;-67
2023/08/22 00:11:37;;;;;;;12.85;4.25;;;;;;;18.35;100.00;101764.63;5046904;28;20040;-67
2023/08/22 00:14:03;;;;;;;8.38;3.17;;;;;;;18.34;100.00;101768.22;5042863;28;20033;-67
2023/08/22 00:16:29;;;;;;;7.32;3.55;;;;;;;18.32;100.00;101759.72;5038228;28;20510;-67
2023/08/22 00:18:54;;;;;;;7.97;3.75;;;;;;;18.32;100.00;101757.09;5026693;28;20698;-67
2023/08/22 00:21:20;;;;;;;7.93;3.10;;;;;;;18.32;100.00;101757.91;5043694;28;20033;-67
2023/08/22 00:23:46;;;;;;;5.80;3.30;;;;;;;18.32;100.00;101755.28;5041481;28;20957;-67
2023/08/22 00:26:11;;;;;;;16.55;3.60;;;;;;;18.32;100.00;101749.22;5045976;28;20029;-67
2023/08/22 00:28:37;;;;;;;6.40;3.17;;;;;;;18.32;99.92;101743.97;5027582;28;20029;-67
2023/08/22 00:31:02;;;;;;;6.63;3.35;;;;;;;18.31;99.83;101743.19;5024034;28;20045;-66
2023/08/22 00:33:28;;;;;;;7.60;3.92;;;;;;;18.28;99.50;101736.47;5042473;28;20030;-67
2023/08/22 00:35:53;;;;;;;7.75;3.03;;;;;;;18.24;99.47;101744.91;5026779;28;20526;-67
2023/08/22 00:38:19;;;;;;;5.18;3.38;;;;;;;18.17;99.82;101741.38;5017362;28;20045;-67
2023/08/22 00:40:45;;;;;;;6.57;3.60;;;;;;;18.12;100.00;101741.94;5050250;28;20045;-66
2023/08/22 00:43:10;;;;;;;8.55;3.10;;;;;;;18.08;100.00;101738.03;5027749;28;20395;-67
2023/08/22 00:45:39;;;;;;;6.63;3.00;;;;;;;18.06;100.00;101730.38;5029166;28;20032;-66
2023/08/22 00:48:05;;;;;;;5.63;2.92;;;;;;;18.05;100.00;101726.09;5043524;28;20116;-66
2023/08/22 00:50:31;;;;;;;7.78;2.90;;;;;;;18.05;100.00;101733.16;5010473;28;20026;-66
2023/08/22 00:52:57;;;;;;;3.90;2.75;;;;;;;18.04;100.00;101729.72;5027846;28;20049;-66
2023/08/22 00:55:22;;;;;;;5.28;2.92;;;;;;;18.02;100.00;101728.28;5016177;28;20029;-66
2023/08/22 00:57:48;;;;;;;7.07;3.17;;;;;;;17.99;100.00;101726.00;5024000;28;20036;-67
2023/08/22 01:00:14;;;;;;;7.95;3.70;;;;;;;17.96;100.00;101729.00;5011857;28;20026;-66
2023/08/22 01:02:40;;;;;;;6.28;2.63;;;;;;;17.93;100.00;101714.44;5028180;28;20045;-66
2023/08/22 01:05:07;;;;;;;6.43;2.75;;;;;;;17.92;100.00;101727.75;5045500;28;20110;-66
2023/08/22 01:07:41;;;;;;;9.68;3.45;;;;;;;17.85;100.00;101725.84;5041314;28;20041;-66
2023/08/22 01:10:33;;;;;;;6.53;3.47;;;;;;;17.82;100.00;101728.81;5029802;28;20033;-66
2023/08/22 01:13:14;;;;;;;6.70;3.33;;;;;;;17.81;100.00;101729.78;5037976;28;20135;-67
2023/08/22 01:15:41;;;;;;;5.25;3.22;;;;;;;17.78;100.00;101726.72;5049403;28;20040;-66
2023/08/22 01:18:07;;;;;;;7.10;3.05;;;;;;;17.75;100.00;101724.47;5045410;28;20048;-66
2023/08/22 01:20:34;;;;;;;10.73;3.00;;;;;;;17.73;100.00;101719.41;5042021;28;20077;-66
2023/08/22 01:22:59;;;;;;;6.07;3.17;;;;;;;17.72;100.00;101723.00;5025922;28;20909;-66
2023/08/22 01:25:27;;;;;;;8.60;3.00;;;;;;;17.70;100.00;101728.41;5039275;28;20051;-66
2023/08/22 01:28:11;;;;;;;10.55;3.50;;;;;;;17.70;100.00;101719.75;5022662;28;20044;-67
2023/08/22 01:30:58;;;;;;;5.05;3.60;;;;;;;17.69;100.00;101710.28;5017210;28;20090;-66
2023/08/22 01:33:36;;;;;;;4.28;3.13;;;;;;;17.63;100.00;101705.72;5028010;28;21811;-66
2023/08/22 01:36:03;;;;;;;10.27;3.42;;;;;;;17.52;100.00;101705.19;5047610;28;20052;-66
2023/08/22 01:38:30;;;;;;;6.68;3.40;;;;;;;17.47;100.00;101707.53;5035282;28;20032;-66
2023/08/22 01:40:57;;;;;;;4.78;2.67;;;;;;;17.46;100.00;101719.03;5020405;28;20048;-66
2023/08/22 01:43:24;;;;;;;7.00;3.20;;;;;;;17.45;100.00;101713.97;5046665;28;20150;-66
2023/08/22 01:45:50;;;;;;;6.75;3.17;;;;;;;17.46;100.00;101710.31;5029995;28;20087;-66
2023/08/22 01:48:15;;;;;;;6.95;3.45;;;;;;;17.41;100.00;101721.38;5024739;28;20045;-66
2023/08/22 01:50:42;;;;;;;6.43;3.80;;;;;;;17.40;100.00;101713.66;5046309;28;20025;-66
2023/08/22 01:53:07;;;;;;;5.60;3.10;;;;;;;17.39;100.00;101704.19;5023109;28;20122;-66
2023/08/22 01:55:33;;;;;;;12.82;3.22;;;;;;;17.37;100.00;101714.06;5011354;28;20037;-66
2023/08/22 01:57:58;;;;;;;6.25;3.42;;;;;;;17.36;100.00;101710.59;5027197;28;20549;-67
2023/08/22 02:00:24;;;;;;;6.05;3.60;;;;;;;17.35;100.00;101708.16;5028858;28;20082;-66
2023/08/22 02:02:50;;;;;;;8.73;3.60;;;;;;;17.36;100.00;101717.66;5026002;28;20033;-66
2023/08/22 02:05:15;;;;;;;10.57;4.18;;;;;;;17.35;100.00;101708.16;5047388;28;20398;-66
2023/08/22 02:07:42;;;;;;;6.20;3.45;;;;;;;17.33;100.00;101703.09;5010380;28;20063;-66
2023/08/22 02:10:07;;;;;;;7.05;3.67;;;;;;;17.35;100.00;101708.97;5030230;28;20045;-66
2023/08/22 02:12:33;;;;;;;6.93;3.40;;;;;;;17.35;100.00;101702.91;5017178;28;20133;-66
2023/08/22 02:14:59;;;;;;;6.82;3.60;;;;;;;17.34;100.00;101701.28;5026021;28;20394;-66
2023/08/22 02:17:25;;;;;;;7.18;3.63;;;;;;;17.31;100.00;101703.28;5011501;28;20494;-66
2023/08/22 02:19:50;;;;;;;10.57;4.18;;;;;;;17.27;100.00;101696.78;5030296;28;20471;-66
2023/08/22 02:22:16;;;;;;;6.88;3.78;;;;;;;17.27;100.00;101702.00;5030335;28;20040;-66
2023/08/22 02:24:43;;;;;;;10.05;3.78;;;;;;;17.24;100.00;101702.34;5029681;28;20043;-67
2023/08/22 02:27:08;;;;;;;8.65;4.13;;;;;;;17.23;100.00;101702.53;5022006;28;20040;-66
2023/08/22 02:29:35;;;;;;;6.25;3.42;;;;;;;17.22;100.00;101699.09;5036040;28;20652;-66
2023/08/22 02:32:01;;;;;;;6.28;3.60;;;;;;;17.21;100.00;101699.28;5044041;28;20032;-65
2023/08/22 02:34:26;;;;;;;8.88;4.57;;;;;;;17.20;100.00;101701.09;5043644;28;20187;-65
2023/08/22 02:36:52;;;;;;;9.95;4.13;;;;;;;17.20;100.00;101701.09;5024823;28;21059;-66
2023/08/22 02:39:18;;;;;;;9.82;4.20;;;;;;;17.20;100.00;101701.09;5025451;28;20052;-66
2023/08/22 02:41:43;;;;;;;7.47;4.25;;;;;;;17.19;100.00;101704.69;5022862;28;20052;-66
2023/08/22 02:44:09;;;;;;;9.30;5.00;;;;;;;17.18;100.00;101697.84;5037250;28;20049;-66
2023/08/22 02:46:34;;;;;;;9.73;4.55;;;;;;;17.16;100.00;101693.75;5025755;28;20026;-66
2023/08/22 02:49:00;;;;;;;9.48;4.47;;;;;;;17.12;100.00;101699.34;5028075;28;20452;-66
2023/08/22 02:51:26;;;;;;;7.95;4.65;;;;;;;17.13;100.00;101702.78;5044090;28;20032;-68
2023/08/22 02:53:52;;;;;;;7.70;4.80;;;;;;;17.10;100.00;101701.34;5028206;28;20052;-68
2023/08/22 02:56:18;;;;;;;11.95;5.00;;;;;;;17.09;100.00;101691.84;5029284;28;20037;-68
2023/08/22 02:58:46;;;;;;;7.32;4.45;;;;;;;17.08;100.00;101697.25;5041869;28;20107;-68
2023/08/22 03:01:11;;;;;;;9.20;3.92;;;;;;;17.06;100.00;101699.25;5013143;28;20145;-68
2023/08/22 03:03:37;;;;;;;8.90;4.38;;;;;;;17.02;100.00;101697.97;5028236;28;20060;-68
2023/08/22 03:06:03;;;;;;;9.35;4.68;;;;;;;17.00;100.00;101695.53;5028161;28;20131;-68
2023/08/22 03:08:28;;;;;;;6.57;4.10;;;;;;;17.00;100.00;101697.34;5046314;28;20041;-68
2023/08/22 03:10:59;;;;;;;8.73;4.40;;;;;;;16.98;100.00;101700.13;5048877;28;20033;-66
2023/08/22 03:13:24;;;;;;;13.73;5.20;;;;;;;16.97;100.00;101695.06;5047221;28;20036;-65
2023/08/22 03:15:52;;;;;;;8.43;4.63;;;;;;;16.97;100.00;101698.50;5047359;28;20078;-66
2023/08/22 03:18:18;;;;;;;9.40;5.13;;;;;;;16.95;100.00;101694.41;5039579;28;20049;-66
2023/08/22 03:20:43;;;;;;;8.57;4.32;;;;;;;16.93;100.00;101689.34;5044229;28;20033;-66
2023/08/22 03:23:09;;;;;;;7.57;5.38;;;;;;;16.92;100.00;101691.16;5030769;28;20459;-66
2023/08/22 03:25:36;;;;;;;8.80;5.00;;;;;;;16.91;100.00;101689.56;5027273;28;20041;-66
2023/08/22 03:28:02;;;;;;;9.80;5.20;;;;;;;16.91;100.00;101691.34;5027181;28;20032;-66
2023/08/22 03:30:28;;;;;;;11.55;5.60;;;;;;;16.90;100.00;101693.16;5045376;28;20025;-65
2023/08/22 03:32:53;;;;;;;8.48;5.70;;;;;;;16.91;100.00;101696.56;5042696;28;20495;-66
2023/08/22 03:35:19;;;;;;;7.18;4.57;;;;;;;16.90;100.00;101687.09;5013206;28;20045;-66
2023/08/22 03:37:44;;;;;;;11.00;5.78;;;;;;;16.89;100.00;101690.69;5042361;28;20036;-66
2023/08/22 03:40:11;;;;;;;10.52;5.40;;;;;;;16.86;100.00;101689.25;5014141;28;22069;-66
2023/08/22 03:42:36;;;;;;;12.90;5.68;;;;;;;16.85;100.00;101685.00;5039261;28;20132;-65
2023/08/22 03:45:06;;;;;;;10.55;5.63;;;;;;;16.83;100.00;101679.13;5030046;28;20043;-66
2023/08/22 03:47:32;;;;;;;9.20;5.13;;;;;;;16.81;100.00;101675.84;5042584;28;20549;-66
2023/08/22 03:49:58;;;;;;;12.82;5.45;;;;;;;16.80;100.00;101686.47;5047014;28;20024;-66
2023/08/22 03:52:26;;;;;;;11.73;5.95;;;;;;;16.78;100.00;101680.59;5032762;28;20044;-66
2023/08/22 03:54:52;;;;;;;12.80;6.22;;;;;;;16.78;100.00;101681.41;5005983;28;20037;-66
2023/08/22 03:57:18;;;;;;;9.60;5.43;;;;;;;16.74;100.00;101678.34;5013951;28;20550;-65
2023/08/22 03:59:43;;;;;;;10.65;6.15;;;;;;;16.74;100.00;101686.22;5020040;28;20029;-66
2023/08/22 04:02:09;;;;;;;10.43;5.50;;;;;;;16.68;100.00;101686.88;5024560;28;20098;-65
2023/08/22 04:04:35;;;;;;;14.45;6.45;;;;;;;16.66;100.00;101680.22;5031409;28;20027;-66
2023/08/22 04:07:00;;;;;;;12.23;6.53;;;;;;;16.64;100.00;101679.56;5044851;28;20059;-66
2023/08/22 04:09:26;;;;;;;15.15;7.05;;;;;;;16.62;100.00;101679.75;5027001;28;20029;-65
2023/08/22 04:11:53;;;;;;;10.00;6.00;;;;;;;16.61;100.00;101680.72;5026839;28;20061;-66
2023/08/22 04:14:18;;;;;;;10.73;7.13;;;;;;;16.60;100.00;101681.72;5029012;28;20028;-66
2023/08/22 04:16:44;;;;;;;9.13;6.22;;;;;;;16.58;100.00;101686.31;5028438;28;20480;-66
2023/08/22 04:19:10;;;;;;;10.45;5.97;;;;;;;16.54;100.00;101685.84;5030475;28;20037;-66
2023/08/22 04:21:35;;;;;;;14.15;7.40;;;;;;;16.53;100.00;101691.25;5044247;28;20033;-66
2023/08/22 04:24:01;;;;;;;10.98;6.13;;;;;;;16.52;100.00;101692.25;5043814;28;20033;-65
2023/08/22 04:26:26;;;;;;;14.70;6.18;;;;;;;16.51;100.00;101688.00;5027404;28;20060;-66
2023/08/22 04:28:52;;;;;;;11.40;6.05;;;;;;;16.50;100.00;101688.97;5025878;28;20045;-66
2023/08/22 04:31:18;;;;;;;12.40;6.45;;;;;;;16.50;100.00;101688.97;5018747;28;20523;-66
2023/08/22 04:33:44;;;;;;;11.70;6.43;;;;;;;16.51;100.00;101694.03;5020373;28;20122;-66
2023/08/22 04:36:10;;;;;;;10.95;5.90;;;;;;;16.49;100.00;101693.41;5013730;28;20033;-66
2023/08/22 04:38:35;;;;;;;12.93;6.05;;;;;;;16.49;100.00;101688.16;5028882;28;20033;-66
2023/08/22 04:41:04;;;;;;;13.27;6.88;;;;;;;16.48;100.00;101690.94;5045758;28;20029;-66
2023/08/22 04:43:46;;;;;;;16.67;7.67;;;;;;;16.43;100.00;101693.28;5024219;28;20048;-66
2023/08/22 04:46:12;;;;;;;15.85;6.57;;;;;;;16.38;100.00;101690.38;5032502;28;20262;-68
2023/08/22 04:48:38;;;;;;;9.98;6.60;;;;;;;16.35;100.00;101686.31;5031144;28;20399;-68
2023/08/22 04:51:04;;;;;;;10.45;6.47;;;;;;;16.34;100.00;101689.91;5028560;28;20033;-68
2023/08/22 04:53:29;;;;;;;12.50;7.18;;;;;;;16.33;100.00;101691.72;5042334;28;20045;-69
2023/08/22 04:55:55;;;;;;;13.48;6.82;;;;;;;16.33;100.00;101691.72;5025714;28;20036;-69
2023/08/22 04:58:20;;;;;;;10.02;6.32;;;;;;;16.31;100.00;101690.22;5022181;28;20037;-66
2023/08/22 05:00:46;;;;;;;14.85;6.82;;;;;;;16.30;100.00;101694.66;5025507;28;20442;-66
2023/08/22 05:03:14;;;;;;;13.32;6.93;;;;;;;16.30;100.00;101688.63;5023377;28;20055;-66
2023/08/22 05:05:41;;;;;;;13.30;6.90;;;;;;;16.30;100.00;101692.03;5025972;28;20037;-66
2023/08/22 05:08:07;;;;;;;11.68;6.70;;;;;;;16.32;100.00;101690.06;5023308;28;20408;-66
2023/08/22 05:10:33;;;;;;;16.80;7.18;;;;;;;16.34;100.00;101690.72;5030871;28;20033;-66
2023/08/22 05:12:58;;;;;;;10.30;6.50;;;;;;;16.36;100.00;101687.91;5022816;28;20416;-66
2023/08/22 05:15:25;;;;;;;10.15;6.05;;;;;;;16.38;100.00;101682.53;5024020;28;20120;-66
2023/08/22 05:17:53;;;;;;;19.02;6.82;;;;;;;16.41;100.00;101684.81;5014678;28;20138;-66
2023/08/22 05:20:19;;;;;;;10.45;6.38;;;;;;;16.45;100.00;101686.09;5005710;28;20041;-66
2023/08/22 05:22:45;;;;;;;12.93;6.22;;;;;;;16.47;100.00;101691.97;5018510;28;20119;-66
2023/08/22 05:25:10;;;;;;;10.60;6.60;;;;;;;16.45;100.00;101691.31;5015376;28;20595;-66
2023/08/22 05:27:37;;;;;;;12.43;6.93;;;;;;;16.44;100.00;101687.88;5027375;28;20037;-66
2023/08/22 05:30:05;;;;;;;9.50;6.70;;;;;;;16.44;100.00;101689.66;5026825;28;20703;-66
2023/08/22 05:32:30;;;;;;;11.80;6.90;;;;;;;16.46;100.00;101688.53;5039785;28;20067;-66
2023/08/22 05:34:56;;;;;;;12.10;7.10;;;;;;;16.51;100.00;101691.41;5029403;28;20040;-66
2023/08/22 05:37:22;;;;;;;12.20;6.90;;;;;;;16.57;100.00;101686.50;5045164;28;20036;-66
2023/08/22 05:39:48;;;;;;;14.25;6.85;;;;;;;16.62;100.00;101692.03;5006610;28;20090;-66
2023/08/22 05:42:13;;;;;;;13.57;6.38;;;;;;;16.65;100.00;101695.13;5008468;28;20124;-66
2023/08/22 05:44:39;;;;;;;11.32;6.53;;;;;;;16.70;100.00;101695.38;5025689;28;20045;-66
2023/08/22 05:47:06;;;;;;;10.88;6.82;;;;;;;16.72;100.00;101688.16;5041526;28;20041;-66
2023/08/22 05:49:32;;;;;;;13.18;6.35;;;;;;;16.76;100.00;101695.69;5044555;28;20355;-66
2023/08/22 05:52:02;;;;;;;11.93;6.35;;;;;;;16.76;100.00;101688.63;5017230;28;20032;-66
2023/08/22 05:54:29;;;;;;;10.95;6.65;;;;;;;16.74;100.00;101699.31;5040469;28;20033;-66
2023/08/22 05:56:55;;;;;;;10.55;6.60;;;;;;;16.72;100.00;101696.03;5025869;28;20044;-66
2023/08/22 05:59:22;;;;;;;14.07;6.40;;;;;;;16.72;100.00;101693.41;5026362;28;20033;-66
2023/08/22 06:01:49;;;;;;;12.23;7.82;;;;;;;16.77;100.00;101694.72;5026254;28;20085;-66
2023/08/22 06:04:17;;;;;;;11.02;6.18;;;;;;;16.85;100.00;101695.47;5045863;28;20064;-67
2023/08/22 06:06:44;;;;;;;10.80;6.15;;;;;;;17.02;100.00;101697.97;5017452;28;20036;-67
2023/08/22 06:09:11;;;;;;;12.68;6.93;;;;;;;17.17;100.00;101698.00;5038483;28;20041;-66
2023/08/22 06:11:36;;;;;;;9.27;6.72;;;;;;;17.30;100.00;101701.63;5025039;28;20127;-66
2023/08/22 06:14:02;;;;;;;12.77;7.47;;;;;;;17.48;100.00;101701.31;5026512;28;20044;-66
2023/08/22 06:16:28;;;;;;;12.45;7.75;;;;;;;17.66;100.00;101697.50;5028767;28;20025;-66
2023/08/22 06:18:54;;;;;;;12.60;8.88;;;;;;;17.77;100.00;101702.31;5024701;28;20054;-66
2023/08/22 06:21:19;;;;;;;18.05;8.18;;;;;;;17.85;100.00;101709.28;5034951;28;20025;-66
2023/08/22 06:23:45;;;;;;;12.77;6.55;;;;;;;17.90;100.00;101710.38;5028685;28;20042;-66
2023/08/22 06:26:11;;;;;;;13.48;6.68;;;;;;;17.94;100.00;101708.19;5031999;28;20033;-66
2023/08/22 06:28:36;;;;;;;9.55;6.15;;;;;;;17.97;100.00;101707.84;5028635;28;20047;-66
2023/08/22 06:31:02;;;;;;;10.30;6.15;;;;;;;17.97;100.00;101701.75;5047622;28;20490;-66
2023/08/22 06:33:29;;;;;;;12.88;7.28;;;;;;;18.00;100.00;101706.66;5024075;28;20029;-66
2023/08/22 06:35:54;;;;;;;10.43;6.97;;;;;;;18.03;100.00;101704.47;5030477;28;20540;-66
2023/08/22 06:38:20;;;;;;;13.50;7.43;;;;;;;18.09;100.00;101710.81;5031713;28;20037;-66
2023/08/22 06:40:45;;;;;;;12.57;7.22;;;;;;;18.18;100.00;101711.53;5028073;28;20033;-66
2023/08/22 06:43:11;;;;;;;12.40;7.00;;;;;;;18.27;100.00;101702.50;5042500;28;20065;-66
2023/08/22 06:45:37;;;;;;;18.25;8.80;;;;;;;18.44;100.00;101700.47;5027224;28;20052;-66
2023/08/22 06:48:03;;;;;;;23.63;10.82;;;;;;;18.59;100.00;101703.88;5028001;28;20112;-66
2023/08/22 06:50:28;;;;;;;19.38;9.52;;;;;;;18.76;100.00;101709.69;5047479;28;20498;-66
2023/08/22 06:52:54;;;;;;;35.65;11.35;;;;;;;18.96;100.00;101696.75;5023751;28;20299;-66
2023/08/22 06:55:19;;;;;;;19.48;9.45;;;;;;;19.20;100.00;101700.78;5050418;28;20433;-66
2023/08/22 06:57:45;;;;;;;15.05;8.90;;;;;;;19.45;100.00;101702.97;5027581;28;20132;-66
2023/08/22 07:00:14;;;;;;;19.15;8.82;;;;;;;19.65;100.00;101706.53;5043347;28;20052;-66
2023/08/22 07:02:45;;;;;;;19.55;9.60;;;;;;;19.82;100.00;101708.88;5045186;28;20052;-66
2023/08/22 07:05:12;;;;;;;15.05;7.82;;;;;;;19.99;99.74;101701.47;5045232;28;20098;-66
2023/08/22 07:07:38;;;;;;;14.95;7.82;;;;;;;20.17;98.89;101706.16;5041601;28;20029;-66
2023/08/22 07:10:09;;;;;;;17.00;8.88;;;;;;;20.52;97.13;101712.13;5002983;28;20445;-66
2023/08/22 07:12:35;;;;;;;19.15;8.27;;;;;;;20.89;95.02;101703.88;5043103;28;20720;-66
2023/08/22 07:15:01;;;;;;;14.90;8.73;;;;;;;21.44;92.78;101707.13;5035035;28;20037;-66
2023/08/22 07:17:26;;;;;;;13.88;7.35;;;;;;;21.83;89.61;101709.84;5039907;28;20047;-66
2023/08/22 07:19:52;;;;;;;14.18;8.65;;;;;;;22.36;86.00;101707.00;5042271;28;20060;-66
2023/08/22 07:22:17;;;;;;;18.20;8.75;;;;;;;23.06;80.89;101706.88;5039861;28;20067;-66
2023/08/22 07:24:43;;;;;;;20.13;7.72;;;;;;;23.63;78.06;101705.91;5025843;28;20053;-67
2023/08/22 07:27:12;;;;;;;10.25;6.90;;;;;;;24.03;74.19;101716.03;5046074;28;20063;-66
2023/08/22 07:29:37;;;;;;;14.15;6.60;;;;;;;24.56;72.21;101714.50;5047342;28;20037;-66
2023/08/22 07:32:03;;;;;;;14.13;7.57;;;;;;;24.79;68.91;101709.25;4997291;23;21290;-66
2023/08/22 07:34:28;;;;;;;12.95;6.18;;;;;;;25.10;70.56;101709.16;4998964;28;20117;-67
2023/08/22 07:36:54;;;;;;;13.20;6.22;;;;;;;25.30;67.56;101724.72;5000666;28;20107;-67
2023/08/22 07:39:20;;;;;;;9.90;5.47;;;;;;;24.91;69.98;101711.91;5003716;28;20038;-67
2023/08/22 07:41:46;;;;;;;14.88;5.32;;;;;;;24.56;70.09;101720.63;4991183;28;20045;-67
2023/08/22 07:44:13;;;;;;;15.43;5.82;;;;;;;24.36;71.26;101726.19;4986175;28;20022;-66
2023/08/22 07:46:38;;;;;;;9.32;5.35;;;;;;;24.27;70.63;101725.69;4973026;28;20536;-67
2023/08/22 07:49:03;;;;;;;10.68;5.15;;;;;;;24.60;69.81;101729.75;4968405;28;20038;-67
2023/08/22 07:51:30;;;;;;;15.57;6.60;;;;;;;25.08;69.05;101730.59;4983055;28;20287;-67
2023/08/22 07:53:55;;;;;;;12.30;5.22;;;;;;;25.76;67.33;101728.34;4952736;28;20038;-67
2023/08/22 07:56:21;;;;;;;11.57;5.90;;;;;;;26.47;62.60;101728.09;4986326;28;20053;-67
2023/08/22 07:58:47;;;;;;;11.30;5.25;;;;;;;26.97;59.79;101727.31;4982473;28;20031;-67
2023/08/22 08:01:13;;;;;;;7.40;4.53;;;;;;;26.86;58.90;101728.19;4969770;28;20574;-67
2023/08/22 08:03:38;;;;;;;19.00;6.22;;;;;;;26.34;61.60;101729.19;4981854;28;20042;-67
2023/08/22 08:06:04;;;;;;;13.68;4.38;;;;;;;26.59;60.65;101724.31;4969465;28;20480;-67
2023/08/22 08:08:29;;;;;;;12.80;5.95;;;;;;;26.85;58.68;101721.28;4965139;28;20034;-67
2023/08/22 08:10:55;;;;;;;9.15;3.65;;;;;;;27.53;56.55;101721.97;4964933;28;20128;-67
2023/08/22 08:13:21;;;;;;;5.93;3.28;;;;;;;27.99;53.39;101727.03;4970508;28;21264;-68
2023/08/22 08:15:46;;;;;;;12.00;3.20;;;;;;;28.35;52.80;101726.34;4970384;28;20095;-67
2023/08/22 08:18:14;;;;;;;6.90;3.08;;;;;;;28.66;50.78;101728.47;4972300;28;20105;-68
2023/08/22 08:20:39;;;;;;;8.48;3.15;;;;;;;28.85;47.79;101721.66;4990059;28;20500;-67
2023/08/22 08:23:05;;;;;;;10.38;3.35;;;;;;;29.07;48.05;101734.09;4986025;28;20027;-67
2023/08/22 08:25:30;;;;;;;10.02;4.20;;;;;;;28.91;50.53;101725.19;4985258;28;20653;-67
2023/08/22 08:27:57;;;;;;;7.47;3.13;;;;;;;29.03;51.29;101730.34;4984241;28;20052;-68
2023/08/22 08:30:22;;;;;;;9.73;3.25;;;;;;;28.85;50.99;101744.88;4968296;28;20034;-67
2023/08/22 08:32:48;;;;;;;9.45;3.13;;;;;;;28.66;50.78;101739.16;4965409;28;20582;-68
2023/08/22 08:35:13;;;;;;;10.50;3.10;;;;;;;27.93;51.05;101751.00;4983794;28;20532;-69
2023/08/22 08:37:39;;;;;;;8.65;2.65;;;;;;;27.69;53.02;101758.41;4966199;28;20050;-67
2023/08/22 08:40:08;;;;;;;9.40;3.80;;;;;;;27.31;54.04;101759.22;4967485;28;20030;-67
2023/08/22 08:42:37;;;;;;;5.85;3.22;;;;;;;27.07;56.26;101763.91;4967966;28;20042;-68
2023/08/22 08:45:06;;;;;;;7.63;3.42;;;;;;;27.00;56.65;101758.75;4967819;28;20464;-67
2023/08/22 08:47:36;;;;;;;7.03;3.33;;;;;;;26.97;56.20;101752.06;4984767;28;20442;-67
2023/08/22 08:50:04;;;;;;;7.13;2.85;;;;;;;26.58;58.71;101741.31;4982073;28;20041;-67
2023/08/22 08:52:30;;;;;;;9.15;3.08;;;;;;;26.50;56.64;101751.53;4980611;28;20050;-67
2023/08/22 08:54:57;;;;;;;7.40;3.40;;;;;;;26.21;57.22;101757.69;4950533;28;20034;-67
2023/08/22 08:57:22;;;;;;;14.10;3.67;;;;;;;26.25;56.56;101755.34;4966118;28;20058;-67
2023/08/22 08:59:48;;;;;;;8.13;3.08;;;;;;;26.78;56.16;101758.66;4981936;28;20398;-67
2023/08/22 09:02:17;;;;;;;10.15;2.65;;;;;;;26.71;55.22;101764.16;4964291;28;20374;-67
2023/08/22 09:04:43;;;;;;;10.15;2.75;;;;;;;26.59;55.39;101758.91;4984163;28;20057;-67
2023/08/22 09:07:09;;;;;;;13.88;3.20;;;;;;;26.74;55.15;101755.69;4981000;28;20030;-67
2023/08/22 09:09:35;;;;;;;9.80;3.35;;;;;;;26.79;56.17;101761.09;4978671;28;20085;-67
2023/08/22 09:12:05;;;;;;;9.95;3.13;;;;;;;27.15;55.05;101763.50;4964947;28;20049;-67
2023/08/22 09:14:31;;;;;;;8.35;2.80;;;;;;;27.29;55.10;101751.47;4983407;28;20057;-67
2023/08/22 09:16:59;;;;;;;6.35;2.10;;;;;;;27.53;53.63;101762.72;4980683;28;20852;-67
2023/08/22 09:19:25;;;;;;;8.88;2.70;;;;;;;27.19;55.67;101770.75;4995531;28;20038;-67
2023/08/22 09:21:58;;;;;;;6.10;2.22;;;;;;;27.14;55.86;101769.88;4980815;28;20034;-67
2023/08/22 09:24:25;;;;;;;16.15;3.50;;;;;;;26.82;56.03;101764.31;4963789;28;20186;-67
2023/08/22 09:26:50;;;;;;;10.25;2.97;;;;;;;26.59;58.04;101764.22;4964143;28;20085;-67
2023/08/22 09:29:25;;;;;;;7.07;3.17;;;;;;;26.32;59.14;101758.69;4966545;28;20068;-67
2023/08/22 09:31:51;;;;;;;7.22;2.88;;;;;;;26.23;59.76;101757.44;4984175;28;20373;-67
2023/08/22 09:34:17;;;;;;;6.05;2.55;;;;;;;26.09;60.66;101762.25;4983649;28;20077;-67
2023/08/22 09:36:45;;;;;;;9.73;2.92;;;;;;;26.32;60.28;101755.22;4964992;28;20555;-67
2023/08/22 09:39:13;;;;;;;8.40;2.85;;;;;;;26.39;60.74;101754.03;4961756;28;20076;-67
2023/08/22 09:41:39;;;;;;;7.28;3.17;;;;;;;26.38;59.75;101738.31;4995597;28;20069;-67
2023/08/22 09:44:06;;;;;;;7.50;2.92;;;;;;;26.33;60.02;101754.16;4983011;28;20097;-67
2023/08/22 09:46:31;;;;;;;11.13;3.10;;;;;;;26.16;60.32;101740.81;4982951;28;20042;-67
2023/08/22 09:49:00;;;;;;;5.28;2.10;;;;;;;26.17;61.26;101742.47;4995513;28;20524;-67
2023/08/22 09:51:26;;;;;;;6.00;2.00;;;;;;;26.27;62.05;101732.00;4978301;28;20031;-67
2023/08/22 09:53:59;;;;;;;9.13;2.30;;;;;;;26.48;61.21;101738.47;4965201;28;20064;-67
2023/08/22 09:56:25;;;;;;;5.15;1.80;;;;;;;26.56;59.85;101742.59;4966914;28;20049;-67
2023/08/22 09:58:52;;;;;;;7.40;2.67;;;;;;;26.51;59.31;101745.19;4962777;28;20051;-67
2023/08/22 10:01:19;;;;;;;8.52;3.03;;;;;;;26.49;59.66;101750.72;4980632;28;20049;-67
2023/08/22 10:03:46;;;;;;;8.65;3.17;;;;;;;26.57;59.51;101750.31;4983386;28;20396;-67
2023/08/22 10:06:13;;;;;;;7.25;2.92;;;;;;;26.55;60.34;101747.09;4965885;28;20050;-67
2023/08/22 10:08:42;;;;;;;8.57;3.13;;;;;;;26.33;59.69;101749.63;4981039;28;20050;-67
2023/08/22 10:11:11;;;;;;;6.78;2.70;;;;;;;26.39;59.96;101759.34;4985214;28;20074;-67
2023/08/22 10:13:38;;;;;;;7.55;2.85;;;;;;;26.29;60.78;101758.34;4963818;28;20046;-67
2023/08/22 10:16:03;;;;;;;12.15;2.97;;;;;;;26.29;62.39;101747.72;4983340;28;20041;-67
2023/08/22 10:18:29;;;;;;;10.60;3.78;;;;;;;26.23;61.37;101747.59;4979857;28;20046;-67
2023/08/22 10:20:55;;;;;;;6.20;2.60;;;;;;;26.14;61.54;101748.22;4979854;28;20084;-67
2023/08/22 10:23:52;;;;;;;7.68;2.97;;;;;;;26.09;61.96;101734.84;4981298;28;20620;-67
2023/08/22 10:26:21;;;;;;;5.43;1.88;;;;;;;26.16;61.67;101733.69;4979751;28;20477;-67
2023/08/22 10:29:12;;;;;;;14.98;3.28;;;;;;;26.29;64.41;101729.09;4978878;28;20044;-67
2023/08/22 10:32:02;;;;;;;7.55;2.78;;;;;;;26.22;60.19;101726.63;4993785;28;20093;-67
2023/08/22 10:34:33;;;;;;;7.68;2.80;;;;;;;26.36;60.30;101735.88;4958351;28;20049;-67
2023/08/22 10:37:01;;;;;;;8.98;2.53;;;;;;;26.38;60.77;101740.97;4955039;28;20388;-67
2023/08/22 10:39:37;;;;;;;6.68;2.72;;;;;;;26.31;59.70;101735.78;4964612;28;20493;-67
2023/08/22 10:42:03;;;;;;;7.22;3.80;;;;;;;26.28;59.49;101738.13;4963938;28;20054;-67
2023/08/22 10:44:30;;;;;;;7.35;2.22;;;;;;;26.29;61.44;101743.19;4978176;28;20072;-67
2023/08/22 10:47:06;;;;;;;8.80;2.47;;;;;;;26.39;60.59;101730.09;4956770;28;20026;-67
2023/08/22 10:49:38;;;;;;;5.65;2.58;;;;;;;26.43;61.40;101733.09;4974361;28;20126;-68
2023/08/22 10:52:08;;;;;;;6.95;2.28;;;;;;;26.51;61.61;101738.00;4951749;28;20101;-68
2023/08/22 10:55:03;;;;;;;6.03;2.80;;;;;;;26.46;60.99;101745.88;4978535;28;20035;-67
2023/08/22 10:57:29;;;;;;;8.00;2.75;;;;;;;26.45;61.58;101738.13;4963170;28;20038;-67
2023/08/22 11:00:01;;;;;;;5.85;2.35;;;;;;;26.50;60.71;101738.22;4962693;28;20039;-67
2023/08/22 11:02:31;;;;;;;10.38;2.95;;;;;;;26.70;59.22;101735.16;4959488;28;20031;-67
2023/08/22 11:05:06;;;;;;;8.05;2.47;;;;;;;26.73;57.99;101731.97;4980023;28;20411;-67
2023/08/22 11:07:34;;;;;;;11.13;2.78;;;;;;;26.73;59.29;101730.16;4974762;28;20044;-67
2023/08/22 11:09:59;;;;;;;5.60;3.38;;;;;;;26.89;58.79;101731.19;4982585;28;20408;-67
2023/08/22 11:12:27;;;;;;;7.25;3.70;;;;;;;26.99;58.06;101746.50;4963256;28;20042;-67
2023/08/22 11:14:54;;;;;;;6.95;3.17;;;;;;;27.08;55.93;101741.56;4987933;28;20076;-68
2023/08/22 11:17:21;;;;;;;9.75;2.97;;;;;;;26.79;56.60;101736.34;4981691;28;20042;-67